sensor_id;sensor_type;location;lat;lon;timestamp;pressure;altitude;pressure_sealevel;temperature;humidity
73558;BME280;61829;53.286;10.434;2023-05-08T00:00:57;102279.22;;;8.98;74.13
73558;BME280;61829;53.286;10.434;2023-05-08T00:06:42;102278.03;;;8.91;74.45
73558;BME280;61829;53.286;10.434;2023-05-08T00:09:08;102282.84;;;8.88;73.79
73558;BME280;61829;53.286;10.434;2023-05-08T00:11:34;102276.63;;;8.87;73.72
73558;BME280;61829;53.286;10.434;2023-05-08T00:13:59;102281.44;;;8.84;74.04
73558;BME280;61829;53.286;10.434;2023-05-08T00:16:25;102283.41;;;8.82;73.48
73558;BME280;61829;53.286;10.434;2023-05-08T00:18:51;102279.88;;;8.81;73.54
73558;BME280;61829;53.286;10.434;2023-05-08T00:21:19;102281.72;;;8.81;73.59
73558;BME280;61829;53.286;10.434;2023-05-08T00:23:45;102274.06;;;8.76;73.29
73558;BME280;61829;53.286;10.434;2023-05-08T00:26:10;102274.34;;;8.73;73.31
73558;BME280;61829;53.286;10.434;2023-05-08T00:28:36;102268.41;;;8.69;73.55
73558;BME280;61829;53.286;10.434;2023-05-08T00:31:02;102262.41;;;8.66;73.38
73558;BME280;61829;53.286;10.434;2023-05-08T00:33:28;102260.00;;;8.63;73.67
73558;BME280;61829;53.286;10.434;2023-05-08T00:36:01;102262.25;;;8.58;73.83
73558;BME280;61829;53.286;10.434;2023-05-08T00:38:29;102263.53;;;8.53;74.41
73558;BME280;61829;53.286;10.434;2023-05-08T00:40:56;102255.84;;;8.49;74.79
73558;BME280;61829;53.286;10.434;2023-05-08T00:43:22;102268.00;;;8.43;74.97
73558;BME280;61829;53.286;10.434;2023-05-08T00:45:51;102267.44;;;8.40;75.60
73558;BME280;61829;53.286;10.434;2023-05-08T00:48:17;102266.94;;;8.35;75.32
73558;BME280;61829;53.286;10.434;2023-05-08T00:50:43;102262.69;;;8.32;75.81
73558;BME280;61829;53.286;10.434;2023-05-08T00:53:10;102270.91;;;8.30;75.38
73558;BME280;61829;53.286;10.434;2023-05-08T00:55:39;102267.63;;;8.27;75.66
73558;BME280;61829;53.286;10.434;2023-05-08T00:58:05;102271.44;;;8.24;75.56
73558;BME280;61829;53.286;10.434;2023-05-08T01:00:31;102259.25;;;8.20;75.94
73558;BME280;61829;53.286;10.434;2023-05-08T01:02:59;102276.47;;;8.18;76.03
73558;BME280;61829;53.286;10.434;2023-05-08T01:05:26;102271.53;;;8.13;75.92
73558;BME280;61829;53.286;10.434;2023-05-08T01:07:52;102267.38;;;8.09;75.97
73558;BME280;61829;53.286;10.434;2023-05-08T01:10:18;102263.28;;;8.05;75.89
73558;BME280;61829;53.286;10.434;2023-05-08T01:13:12;102273.44;;;8.01;75.96
73558;BME280;61829;53.286;10.434;2023-05-08T01:15:55;102271.03;;;7.98;76.09
73558;BME280;61829;53.286;10.434;2023-05-08T01:18:27;102268.84;;;7.92;75.70
73558;BME280;61829;53.286;10.434;2023-05-08T01:35:58;102285.34;;;7.67;76.36
73558;BME280;61829;53.286;10.434;2023-05-08T01:38:31;102276.44;;;7.66;76.37
73558;BME280;61829;53.286;10.434;2023-05-08T01:41:07;102278.53;;;7.62;76.43
73558;BME280;61829;53.286;10.434;2023-05-08T01:46:27;102285.41;;;7.55;76.09
73558;BME280;61829;53.286;10.434;2023-05-08T01:49:09;102287.38;;;7.53;76.66
73558;BME280;61829;53.286;10.434;2023-05-08T01:51:48;102286.50;;;7.53;76.50
73558;BME280;61829;53.286;10.434;2023-05-08T01:54:21;102294.94;;;7.48;76.50
73558;BME280;61829;53.286;10.434;2023-05-08T01:56:51;102281.81;;;7.45;76.47
73558;BME280;61829;53.286;10.434;2023-05-08T01:59:20;102280.34;;;7.41;76.67
73558;BME280;61829;53.286;10.434;2023-05-08T02:01:47;102279.88;;;7.36;77.30
73558;BME280;61829;53.286;10.434;2023-05-08T02:04:15;102281.84;;;7.34;77.25
73558;BME280;61829;53.286;10.434;2023-05-08T02:06:41;102280.28;;;7.31;77.30
73558;BME280;61829;53.286;10.434;2023-05-08T02:09:09;102285.31;;;7.25;77.70
73558;BME280;61829;53.286;10.434;2023-05-08T02:11:35;102285.66;;;7.20;78.16
73558;BME280;61829;53.286;10.434;2023-05-08T02:14:02;102288.84;;;7.14;78.44
73558;BME280;61829;53.286;10.434;2023-05-08T02:16:29;102288.38;;;7.09;78.06
73558;BME280;61829;53.286;10.434;2023-05-08T02:18:57;102287.78;;;7.05;78.80
73558;BME280;61829;53.286;10.434;2023-05-08T02:21:25;102287.16;;;7.02;79.31
73558;BME280;61829;53.286;10.434;2023-05-08T02:23:53;102292.06;;;6.96;79.17
73558;BME280;61829;53.286;10.434;2023-05-08T02:26:21;102289.88;;;6.90;79.29
73558;BME280;61829;53.286;10.434;2023-05-08T02:28:49;102289.28;;;6.87;79.80
73558;BME280;61829;53.286;10.434;2023-05-08T02:31:17;102288.53;;;6.85;80.02
73558;BME280;61829;53.286;10.434;2023-05-08T02:33:44;102292.22;;;6.84;79.91
73558;BME280;61829;53.286;10.434;2023-05-08T02:36:13;102287.94;;;6.81;80.13
73558;BME280;61829;53.286;10.434;2023-05-08T02:38:43;102279.44;;;6.76;80.09
73558;BME280;61829;53.286;10.434;2023-05-08T02:41:11;102278.97;;;6.71;80.62
73558;BME280;61829;53.286;10.434;2023-05-08T02:43:55;102280.19;;;6.67;81.11
73558;BME280;61829;53.286;10.434;2023-05-08T02:46:43;102276.06;;;6.63;81.28
73558;BME280;61829;53.286;10.434;2023-05-08T02:49:26;102270.22;;;6.58;80.98
73558;BME280;61829;53.286;10.434;2023-05-08T02:57:21;102272.06;;;6.46;81.71
73558;BME280;61829;53.286;10.434;2023-05-08T03:00:02;102274.22;;;6.41;82.30
73558;BME280;61829;53.286;10.434;2023-05-08T03:05:16;102276.66;;;6.33;82.65
73558;BME280;61829;53.286;10.434;2023-05-08T03:07:49;102267.91;;;6.30;83.50
73558;BME280;61829;53.286;10.434;2023-05-08T03:10:18;102261.84;;;6.28;83.74
73558;BME280;61829;53.286;10.434;2023-05-08T03:12:48;102262.19;;;6.24;83.92
73558;BME280;61829;53.286;10.434;2023-05-08T03:15:28;102267.53;;;6.24;83.93
73558;BME280;61829;53.286;10.434;2023-05-08T03:18:05;102268.63;;;6.21;83.88
73558;BME280;61829;53.286;10.434;2023-05-08T03:20:38;102275.91;;;6.19;84.11
73558;BME280;61829;53.286;10.434;2023-05-08T03:23:05;102263.75;;;6.15;83.96
73558;BME280;61829;53.286;10.434;2023-05-08T03:25:34;102267.41;;;6.14;84.30
73558;BME280;61829;53.286;10.434;2023-05-08T03:28:03;102263.03;;;6.13;84.59
73558;BME280;61829;53.286;10.434;2023-05-08T03:30:30;102256.94;;;6.11;84.48
73558;BME280;61829;53.286;10.434;2023-05-08T03:32:57;102260.50;;;6.12;85.15
73558;BME280;61829;53.286;10.434;2023-05-08T03:35:26;102254.25;;;6.11;85.48
73558;BME280;61829;53.286;10.434;2023-05-08T03:37:52;102252.66;;;6.08;84.76
73558;BME280;61829;53.286;10.434;2023-05-08T03:40:18;102254.63;;;6.06;84.83
73558;BME280;61829;53.286;10.434;2023-05-08T03:42:45;102259.25;;;6.04;85.53
73558;BME280;61829;53.286;10.434;2023-05-08T03:45:15;102257.41;;;6.05;85.45
73558;BME280;61829;53.286;10.434;2023-05-08T03:47:42;102257.56;;;6.03;86.13
73558;BME280;61829;53.286;10.434;2023-05-08T03:50:08;102251.22;;;6.04;85.91
73558;BME280;61829;53.286;10.434;2023-05-08T03:52:34;102265.44;;;6.05;85.94
73558;BME280;61829;53.286;10.434;2023-05-08T03:55:00;102260.84;;;6.07;85.38
73558;BME280;61829;53.286;10.434;2023-05-08T03:57:35;102257.16;;;6.08;85.30
73558;BME280;61829;53.286;10.434;2023-05-08T04:00:11;102258.91;;;6.09;84.93
73558;BME280;61829;53.286;10.434;2023-05-08T04:03:20;102259.75;;;6.10;85.90
73558;BME280;61829;53.286;10.434;2023-05-08T04:06:06;102256.94;;;6.11;85.29
73558;BME280;61829;53.286;10.434;2023-05-08T04:08:44;102265.69;;;6.13;85.86
73558;BME280;61829;53.286;10.434;2023-05-08T04:11:24;102267.41;;;6.14;85.08
73558;BME280;61829;53.286;10.434;2023-05-08T04:13:59;102263.75;;;6.15;84.79
73558;BME280;61829;53.286;10.434;2023-05-08T04:16:27;102269.22;;;6.25;85.24
73558;BME280;61829;53.286;10.434;2023-05-08T04:19:00;102266.69;;;6.68;83.29
73558;BME280;61829;53.286;10.434;2023-05-08T04:21:28;102260.00;;;7.06;82.43
73558;BME280;61829;53.286;10.434;2023-05-08T04:23:59;102265.72;;;7.45;80.58
73558;BME280;61829;53.286;10.434;2023-05-08T04:26:25;102267.94;;;7.82;78.41
73558;BME280;61829;53.286;10.434;2023-05-08T04:28:55;102266.47;;;8.20;77.35
73558;BME280;61829;53.286;10.434;2023-05-08T04:31:23;102270.19;;;8.59;75.49
73558;BME280;61829;53.286;10.434;2023-05-08T04:33:49;102274.22;;;8.94;73.98
73558;BME280;61829;53.286;10.434;2023-05-08T04:36:15;102275.13;;;9.24;72.59
73558;BME280;61829;53.286;10.434;2023-05-08T04:38:42;102268.47;;;9.47;71.52
73558;BME280;61829;53.286;10.434;2023-05-08T04:41:08;102277.22;;;9.78;69.63
73558;BME280;61829;53.286;10.434;2023-05-08T04:43:37;102270.63;;;10.10;68.22
73558;BME280;61829;53.286;10.434;2023-05-08T04:46:04;102282.50;;;10.37;67.42
73558;BME280;61829;53.286;10.434;2023-05-08T04:48:30;102284.25;;;10.55;66.93
73558;BME280;61829;53.286;10.434;2023-05-08T04:50:58;102290.25;;;10.77;65.74
73558;BME280;61829;53.286;10.434;2023-05-08T04:53:23;102285.69;;;11.05;64.44
73558;BME280;61829;53.286;10.434;2023-05-08T04:55:49;102280.56;;;11.30;63.67
73558;BME280;61829;53.286;10.434;2023-05-08T04:58:15;102283.88;;;11.41;62.32
73558;BME280;61829;53.286;10.434;2023-05-08T05:00:41;102280.63;;;11.56;62.76
73558;BME280;61829;53.286;10.434;2023-05-08T05:03:07;102283.28;;;11.74;62.11
73558;BME280;61829;53.286;10.434;2023-05-08T05:05:34;102279.63;;;11.83;61.12
73558;BME280;61829;53.286;10.434;2023-05-08T05:08:00;102285.47;;;11.88;60.63
73558;BME280;61829;53.286;10.434;2023-05-08T05:10:26;102281.19;;;12.03;59.85
73558;BME280;61829;53.286;10.434;2023-05-08T05:12:57;102286.09;;;12.08;59.61
73558;BME280;61829;53.286;10.434;2023-05-08T05:15:26;102292.53;;;12.07;59.55
73558;BME280;61829;53.286;10.434;2023-05-08T05:17:51;102288.47;;;12.11;59.50
73558;BME280;61829;53.286;10.434;2023-05-08T05:20:18;102279.16;;;12.31;58.90
73558;BME280;61829;53.286;10.434;2023-05-08T05:22:43;102282.25;;;12.45;58.28
73558;BME280;61829;53.286;10.434;2023-05-08T05:25:10;102286.53;;;12.55;58.22
73558;BME280;61829;53.286;10.434;2023-05-08T05:27:35;102274.50;;;12.92;57.38
73558;BME280;61829;53.286;10.434;2023-05-08T05:30:02;102282.16;;;13.13;56.19
73558;BME280;61829;53.286;10.434;2023-05-08T05:32:28;102279.88;;;13.35;55.44
73558;BME280;61829;53.286;10.434;2023-05-08T05:34:54;102283.88;;;13.22;54.89
73558;BME280;61829;53.286;10.434;2023-05-08T05:37:19;102285.22;;;13.18;55.21
73558;BME280;61829;53.286;10.434;2023-05-08T05:39:46;102286.22;;;13.17;56.08
73558;BME280;61829;53.286;10.434;2023-05-08T05:42:11;102283.03;;;13.22;55.46
73558;BME280;61829;53.286;10.434;2023-05-08T05:44:37;102285.53;;;13.15;55.13
73558;BME280;61829;53.286;10.434;2023-05-08T05:47:03;102279.25;;;12.98;55.65
73558;BME280;61829;53.286;10.434;2023-05-08T05:49:34;102285.06;;;13.20;55.05
73558;BME280;61829;53.286;10.434;2023-05-08T05:52:00;102291.22;;;13.46;54.77
73558;BME280;61829;53.286;10.434;2023-05-08T05:54:26;102285.78;;;13.38;53.91
73558;BME280;61829;53.286;10.434;2023-05-08T05:56:52;102287.66;;;13.46;54.50
73558;BME280;61829;53.286;10.434;2023-05-08T05:59:17;102280.88;;;13.83;53.59
73558;BME280;61829;53.286;10.434;2023-05-08T06:01:43;102292.53;;;14.08;52.56
73558;BME280;61829;53.286;10.434;2023-05-08T06:04:09;102285.41;;;14.15;52.45
73558;BME280;61829;53.286;10.434;2023-05-08T06:06:35;102274.22;;;14.18;52.72
73558;BME280;61829;53.286;10.434;2023-05-08T06:09:01;102282.97;;;14.53;51.83
73558;BME280;61829;53.286;10.434;2023-05-08T06:11:27;102281.69;;;14.72;50.23
73558;BME280;61829;53.286;10.434;2023-05-08T06:13:52;102277.41;;;14.77;50.77
73558;BME280;61829;53.286;10.434;2023-05-08T06:16:18;102286.16;;;14.56;50.44
73558;BME280;61829;53.286;10.434;2023-05-08T06:18:48;102297.94;;;14.24;51.55
73558;BME280;61829;53.286;10.434;2023-05-08T06:21:14;102286.41;;;14.22;51.50
73558;BME280;61829;53.286;10.434;2023-05-08T06:23:41;102289.66;;;14.09;52.31
73558;BME280;61829;53.286;10.434;2023-05-08T06:26:07;102289.09;;;14.38;51.97
73558;BME280;61829;53.286;10.434;2023-05-08T06:28:36;102295.06;;;14.81;51.15
73558;BME280;61829;53.286;10.434;2023-05-08T06:31:02;102297.03;;;15.19;49.84
73558;BME280;61829;53.286;10.434;2023-05-08T06:33:28;102288.38;;;15.46;49.38
73558;BME280;61829;53.286;10.434;2023-05-08T06:35:54;102291.31;;;15.37;48.89
73558;BME280;61829;53.286;10.434;2023-05-08T06:38:20;102294.44;;;15.25;49.57
73558;BME280;61829;53.286;10.434;2023-05-08T06:40:46;102286.63;;;15.31;49.51
73558;BME280;61829;53.286;10.434;2023-05-08T06:43:14;102284.09;;;15.52;49.21
73558;BME280;61829;53.286;10.434;2023-05-08T06:45:42;102288.72;;;15.66;47.98
73558;BME280;61829;53.286;10.434;2023-05-08T06:48:08;102290.69;;;15.81;48.55
73558;BME280;61829;53.286;10.434;2023-05-08T06:50:36;102287.81;;;16.12;48.21
73558;BME280;61829;53.286;10.434;2023-05-08T06:53:02;102283.25;;;16.42;48.12
73558;BME280;61829;53.286;10.434;2023-05-08T06:55:28;102287.25;;;16.61;46.79
73558;BME280;61829;53.286;10.434;2023-05-08T06:57:54;102283.78;;;16.52;47.01
73558;BME280;61829;53.286;10.434;2023-05-08T07:00:20;102285.13;;;16.56;46.91
73558;BME280;61829;53.286;10.434;2023-05-08T07:02:46;102286.22;;;16.47;47.07
73558;BME280;61829;53.286;10.434;2023-05-08T07:05:12;102287.16;;;16.25;47.29
73558;BME280;61829;53.286;10.434;2023-05-08T07:07:38;102280.63;;;16.34;47.77
73558;BME280;61829;53.286;10.434;2023-05-08T07:10:05;102279.88;;;16.40;47.81
73558;BME280;61829;53.286;10.434;2023-05-08T07:12:32;102281.25;;;16.36;48.29
73558;BME280;61829;53.286;10.434;2023-05-08T07:14:58;102277.59;;;16.44;48.06
73558;BME280;61829;53.286;10.434;2023-05-08T07:17:25;102279.84;;;16.55;47.45
73558;BME280;61829;53.286;10.434;2023-05-08T07:19:54;102268.69;;;16.50;47.78
73558;BME280;61829;53.286;10.434;2023-05-08T07:22:20;102277.78;;;16.57;47.70
73558;BME280;61829;53.286;10.434;2023-05-08T07:24:46;102281.91;;;16.82;47.18
73558;BME280;61829;53.286;10.434;2023-05-08T07:27:12;102277.22;;;16.91;46.20
73558;BME280;61829;53.286;10.434;2023-05-08T07:29:39;102275.16;;;16.93;46.95
73558;BME280;61829;53.286;10.434;2023-05-08T07:32:06;102276.31;;;17.05;46.72
73558;BME280;61829;53.286;10.434;2023-05-08T07:34:32;102271.28;;;17.24;46.53
73558;BME280;61829;53.286;10.434;2023-05-08T07:36:59;102291.84;;;17.48;46.12
73558;BME280;61829;53.286;10.434;2023-05-08T07:39:25;102271.66;;;17.21;46.07
73558;BME280;61829;53.286;10.434;2023-05-08T07:41:52;102275.94;;;17.09;46.08
73558;BME280;61829;53.286;10.434;2023-05-08T07:44:18;102277.47;;;17.33;46.89
73558;BME280;61829;53.286;10.434;2023-05-08T07:46:44;102268.88;;;17.57;46.48
73558;BME280;61829;53.286;10.434;2023-05-08T07:49:09;102271.41;;;17.59;45.55
73558;BME280;61829;53.286;10.434;2023-05-08T07:51:35;102278.44;;;17.74;45.44
73558;BME280;61829;53.286;10.434;2023-05-08T07:54:01;102271.47;;;17.87;45.13
73558;BME280;61829;53.286;10.434;2023-05-08T07:56:27;102280.28;;;18.17;44.58
73558;BME280;61829;53.286;10.434;2023-05-08T07:58:53;102270.91;;;18.26;44.01
73558;BME280;61829;53.286;10.434;2023-05-08T08:01:19;102271.00;;;18.11;44.65
73558;BME280;61829;53.286;10.434;2023-05-08T08:03:45;102260.34;;;17.88;45.17
73558;BME280;61829;53.286;10.434;2023-05-08T08:06:11;102266.31;;;17.99;45.30
73558;BME280;61829;53.286;10.434;2023-05-08T08:08:40;102266.31;;;18.33;45.09
73558;BME280;61829;53.286;10.434;2023-05-08T08:11:06;102265.81;;;18.58;44.54
73558;BME280;61829;53.286;10.434;2023-05-08T08:13:32;102252.88;;;18.32;44.57
73558;BME280;61829;53.286;10.434;2023-05-08T08:15:59;102259.25;;;17.83;44.67
73558;BME280;61829;53.286;10.434;2023-05-08T08:18:25;102257.72;;;18.02;44.81
73558;BME280;61829;53.286;10.434;2023-05-08T08:20:51;102260.59;;;18.28;44.38
73558;BME280;61829;53.286;10.434;2023-05-08T08:23:16;102254.59;;;18.39;44.47
73558;BME280;61829;53.286;10.434;2023-05-08T08:25:43;102264.56;;;18.60;44.04
73558;BME280;61829;53.286;10.434;2023-05-08T08:28:08;102260.44;;;18.36;44.37
73558;BME280;61829;53.286;10.434;2023-05-08T08:30:34;102256.09;;;18.07;44.25
73558;BME280;61829;53.286;10.434;2023-05-08T08:33:00;102256.63;;;17.96;44.24
73558;BME280;61829;53.286;10.434;2023-05-08T08:35:31;102253.09;;;18.02;45.35
73558;BME280;61829;53.286;10.434;2023-05-08T08:37:57;102255.41;;;17.99;45.31
73558;BME280;61829;53.286;10.434;2023-05-08T08:40:23;102256.88;;;18.01;45.53
73558;BME280;61829;53.286;10.434;2023-05-08T08:42:49;102257.41;;;18.18;44.83
73558;BME280;61829;53.286;10.434;2023-05-08T08:45:15;102258.34;;;18.32;45.03
73558;BME280;61829;53.286;10.434;2023-05-08T08:47:43;102259.69;;;18.49;43.45
73558;BME280;61829;53.286;10.434;2023-05-08T08:50:12;102259.69;;;18.49;43.25
73558;BME280;61829;53.286;10.434;2023-05-08T08:55:06;102273.38;;;18.56;43.21
73558;BME280;61829;53.286;10.434;2023-05-08T08:57:35;102267.09;;;18.62;42.70
73558;BME280;61829;53.286;10.434;2023-05-08T09:00:06;102261.09;;;18.38;44.16
73558;BME280;61829;53.286;10.434;2023-05-08T09:02:33;102254.56;;;18.33;44.14
73558;BME280;61829;53.286;10.434;2023-05-08T09:04:59;102246.00;;;18.43;44.29
73558;BME280;61829;53.286;10.434;2023-05-08T09:07:26;102248.91;;;18.34;43.17
73558;BME280;61829;53.286;10.434;2023-05-08T09:09:56;102245.22;;;18.55;43.40
73558;BME280;61829;53.286;10.434;2023-05-08T09:12:21;102239.19;;;18.73;44.23
73558;BME280;61829;53.286;10.434;2023-05-08T09:14:49;102247.00;;;18.76;43.65
73558;BME280;61829;53.286;10.434;2023-05-08T09:17:15;102250.94;;;18.67;43.82
73558;BME280;61829;53.286;10.434;2023-05-08T09:19:41;102234.13;;;18.63;44.19
73558;BME280;61829;53.286;10.434;2023-05-08T09:22:08;102236.63;;;18.65;43.21
73558;BME280;61829;53.286;10.434;2023-05-08T09:24:57;102249.19;;;18.53;43.88
73558;BME280;61829;53.286;10.434;2023-05-08T09:27:25;102244.75;;;18.45;43.29
73558;BME280;61829;53.286;10.434;2023-05-08T09:30:17;102240.81;;;18.54;43.73
73558;BME280;61829;53.286;10.434;2023-05-08T09:32:43;102238.34;;;18.66;44.17
73558;BME280;61829;53.286;10.434;2023-05-08T09:35:10;102234.69;;;19.07;43.09
73558;BME280;61829;53.286;10.434;2023-05-08T09:37:38;102234.31;;;19.23;41.91
73558;BME280;61829;53.286;10.434;2023-05-08T09:40:21;102236.81;;;19.18;42.53
73558;BME280;61829;53.286;10.434;2023-05-08T09:42:49;102236.22;;;19.36;42.72
73558;BME280;61829;53.286;10.434;2023-05-08T09:45:30;102230.13;;;19.41;41.89
73558;BME280;61829;53.286;10.434;2023-05-08T09:47:56;102240.66;;;19.64;41.58
73558;BME280;61829;53.286;10.434;2023-05-08T09:50:23;102222.78;;;19.88;41.27
73558;BME280;61829;53.286;10.434;2023-05-08T09:52:50;102228.88;;;19.83;41.02
73558;BME280;61829;53.286;10.434;2023-05-08T09:55:16;102234.16;;;19.65;40.57
73558;BME280;61829;53.286;10.434;2023-05-08T10:00:18;102228.25;;;19.88;41.44
73558;BME280;61829;53.286;10.434;2023-05-08T10:07:58;102222.53;;;20.16;38.54
73558;BME280;61829;53.286;10.434;2023-05-08T10:10:26;102218.75;;;20.10;38.85
73558;BME280;61829;53.286;10.434;2023-05-08T10:12:56;102219.63;;;19.84;39.03
73558;BME280;61829;53.286;10.434;2023-05-08T10:15:24;102216.28;;;19.69;40.45
73558;BME280;61829;53.286;10.434;2023-05-08T10:18:03;102217.53;;;19.80;38.82
73558;BME280;61829;53.286;10.434;2023-05-08T10:20:34;102216.66;;;19.92;39.66
73558;BME280;61829;53.286;10.434;2023-05-08T10:23:06;102207.81;;;19.97;40.25
73558;BME280;61829;53.286;10.434;2023-05-08T10:25:45;102198.88;;;20.28;39.28
73558;BME280;61829;53.286;10.434;2023-05-08T10:28:15;102202.31;;;20.10;37.90
73558;BME280;61829;53.286;10.434;2023-05-08T10:30:47;102210.81;;;19.82;38.65
73558;BME280;61829;53.286;10.434;2023-05-08T10:33:14;102212.47;;;19.63;36.87
73558;BME280;61829;53.286;10.434;2023-05-08T10:35:41;102218.34;;;19.60;38.36
73558;BME280;61829;53.286;10.434;2023-05-08T10:38:07;102209.50;;;19.91;37.84
73558;BME280;61829;53.286;10.434;2023-05-08T10:40:34;102203.16;;;20.11;37.40
73558;BME280;61829;53.286;10.434;2023-05-08T10:43:00;102204.97;;;20.37;37.02
73558;BME280;61829;53.286;10.434;2023-05-08T10:45:27;102202.06;;;20.25;36.46
73558;BME280;61829;53.286;10.434;2023-05-08T10:53:15;102197.28;;;19.01;35.40
73558;BME280;61829;53.286;10.434;2023-05-08T10:55:45;102201.22;;;18.85;35.84
73558;BME280;61829;53.286;10.434;2023-05-08T10:58:14;102208.41;;;18.93;36.58
73558;BME280;61829;53.286;10.434;2023-05-08T11:03:26;102194.78;;;19.06;36.97
73558;BME280;61829;53.286;10.434;2023-05-08T11:05:54;102195.22;;;19.29;37.24
73558;BME280;61829;53.286;10.434;2023-05-08T11:08:23;102184.28;;;19.56;36.79
73558;BME280;61829;53.286;10.434;2023-05-08T11:13:49;102178.81;;;19.69;35.48
73558;BME280;61829;53.286;10.434;2023-05-08T11:16:17;102184.25;;;19.89;34.91
73558;BME280;61829;53.286;10.434;2023-05-08T11:19:15;102184.91;;;19.85;34.41
73558;BME280;61829;53.286;10.434;2023-05-08T11:22:21;102170.38;;;19.64;34.69
73558;BME280;61829;53.286;10.434;2023-05-08T11:27:16;102175.81;;;20.04;35.62
73558;BME280;61829;53.286;10.434;2023-05-08T11:29:43;102171.94;;;20.25;35.90
73558;BME280;61829;53.286;10.434;2023-05-08T11:32:09;102168.75;;;20.35;34.02
73558;BME280;61829;53.286;10.434;2023-05-08T11:37:11;102165.09;;;20.61;33.83
73558;BME280;61829;53.286;10.434;2023-05-08T11:39:41;102164.84;;;20.94;33.50
73558;BME280;61829;53.286;10.434;2023-05-08T11:47:37;102160.19;;;21.01;32.43
73558;BME280;61829;53.286;10.434;2023-05-08T11:50:03;102165.72;;;21.20;32.95
73558;BME280;61829;53.286;10.434;2023-05-08T11:52:34;102157.13;;;21.16;33.34
73558;BME280;61829;53.286;10.434;2023-05-08T11:55:03;102165.00;;;21.31;32.95
73558;BME280;61829;53.286;10.434;2023-05-08T11:57:30;102161.41;;;21.30;32.29
73558;BME280;61829;53.286;10.434;2023-05-08T11:59:56;102164.22;;;21.24;32.33
73558;BME280;61829;53.286;10.434;2023-05-08T12:02:38;102166.59;;;21.20;32.14
73558;BME280;61829;53.286;10.434;2023-05-08T12:05:09;102161.22;;;21.00;33.39
73558;BME280;61829;53.286;10.434;2023-05-08T12:07:44;102159.94;;;20.71;32.68
73558;BME280;61829;53.286;10.434;2023-05-08T12:10:14;102164.25;;;20.54;32.95
73558;BME280;61829;53.286;10.434;2023-05-08T12:12:41;102157.16;;;20.39;33.88
73558;BME280;61829;53.286;10.434;2023-05-08T12:15:12;102162.44;;;20.34;32.63
73558;BME280;61829;53.286;10.434;2023-05-08T12:17:39;102152.88;;;20.50;33.94
73558;BME280;61829;53.286;10.434;2023-05-08T12:22:49;102155.19;;;20.92;32.80
73558;BME280;61829;53.286;10.434;2023-05-08T12:25:16;102148.97;;;20.78;33.06
73558;BME280;61829;53.286;10.434;2023-05-08T12:27:42;102151.47;;;20.79;34.17
73558;BME280;61829;53.286;10.434;2023-05-08T12:30:11;102149.13;;;20.83;34.61
73558;BME280;61829;53.286;10.434;2023-05-08T12:32:42;102157.59;;;20.75;33.27
73558;BME280;61829;53.286;10.434;2023-05-08T12:35:09;102143.81;;;20.56;33.79
73558;BME280;61829;53.286;10.434;2023-05-08T12:37:36;102145.50;;;20.57;34.73
73558;BME280;61829;53.286;10.434;2023-05-08T12:40:03;102140.16;;;20.69;33.61
73558;BME280;61829;53.286;10.434;2023-05-08T12:42:46;102144.97;;;20.29;33.81
73558;BME280;61829;53.286;10.434;2023-05-08T12:45:20;102137.06;;;20.07;34.23
73558;BME280;61829;53.286;10.434;2023-05-08T12:47:48;102138.78;;;19.95;34.43
73558;BME280;61829;53.286;10.434;2023-05-08T12:50:17;102147.22;;;19.87;33.89
73558;BME280;61829;53.286;10.434;2023-05-08T12:52:46;102151.06;;;19.59;35.01
73558;BME280;61829;53.286;10.434;2023-05-08T12:55:26;102145.16;;;19.49;35.34
73558;BME280;61829;53.286;10.434;2023-05-08T12:58:11;102141.38;;;19.50;34.31
73558;BME280;61829;53.286;10.434;2023-05-08T13:00:42;102135.50;;;19.40;35.17
73558;BME280;61829;53.286;10.434;2023-05-08T13:03:10;102135.50;;;19.40;34.70
73558;BME280;61829;53.286;10.434;2023-05-08T13:05:37;102133.19;;;19.30;35.38
73558;BME280;61829;53.286;10.434;2023-05-08T13:08:07;102133.19;;;19.43;36.62
73558;BME280;61829;53.286;10.434;2023-05-08T13:11:02;102133.38;;;19.68;35.68
73558;BME280;61829;53.286;10.434;2023-05-08T13:13:30;102135.84;;;19.90;36.24
73558;BME280;61829;53.286;10.434;2023-05-08T13:15:57;102129.50;;;20.03;33.84
73558;BME280;61829;53.286;10.434;2023-05-08T13:18:26;102129.97;;;19.93;35.27
73558;BME280;61829;53.286;10.434;2023-05-08T13:20:53;102129.78;;;19.88;34.71
73558;BME280;61829;53.286;10.434;2023-05-08T13:23:19;102135.22;;;19.94;33.81
73558;BME280;61829;53.286;10.434;2023-05-08T13:25:45;102130.78;;;20.00;34.25
73558;BME280;61829;53.286;10.434;2023-05-08T13:28:11;102120.56;;;20.21;34.44
73558;BME280;61829;53.286;10.434;2023-05-08T13:30:37;102119.66;;;20.40;33.77
73558;BME280;61829;53.286;10.434;2023-05-08T13:33:04;102116.22;;;20.51;33.23
73558;BME280;61829;53.286;10.434;2023-05-08T13:35:31;102116.63;;;20.61;32.60
73558;BME280;61829;53.286;10.434;2023-05-08T13:37:57;102111.84;;;20.82;32.54
73558;BME280;61829;53.286;10.434;2023-05-08T13:40:24;102118.44;;;20.99;31.84
73558;BME280;61829;53.286;10.434;2023-05-08T13:42:50;102107.84;;;21.10;31.65
73558;BME280;61829;53.286;10.434;2023-05-08T13:45:17;102104.53;;;21.01;31.39
73558;BME280;61829;53.286;10.434;2023-05-08T13:47:47;102107.22;;;21.07;33.26
73558;BME280;61829;53.286;10.434;2023-05-08T13:50:14;102094.16;;;21.28;32.26
73558;BME280;61829;53.286;10.434;2023-05-08T13:52:41;102105.75;;;21.30;30.69
73558;BME280;61829;53.286;10.434;2023-05-08T13:55:08;102103.84;;;21.30;30.97